Time,TemperatureF,DewpointF,PressureIn,WindDirection,WindDirectionDegrees,WindSpeedMPH,WindSpeedGustMPH,Humidity,HourlyPrecipIn,Conditions,Clouds,dailyrainin,SoftwareType,DateUTC
2013-04-12 08:39:00,36.5,28.4,29.88,WSW,248,4.4,9.5,72,0.00,,,0.00,WUHU216TE923,2013-04-12 15:39:00,
2013-04-12 08:44:00,36.5,28.4,29.88,SW,225,5.0,9.5,72,0.00,,,0.00,WUHU216TE923,2013-04-12 15:44:00,
2013-04-12 08:49:00,36.5,28.4,29.88,SSW,203,5.4,6.8,72,0.00,,,0.00,WUHU216TE923,2013-04-12 15:49:00,
2013-04-12 08:54:00,38.5,28.6,29.88,SSW,203,6.0,10.7,67,0.00,,,0.00,WUHU216TE923,2013-04-12 15:54:00,
2013-04-12 08:59:00,38.5,28.6,29.88,SSW,203,6.0,10.7,67,0.00,,,0.00,WUHU216TE923,2013-04-12 15:59:00,
2013-04-12 09:04:00,39.2,28.5,29.87,WNW,293,5.6,10.6,65,0.00,,,0.00,WUHU216TE923,2013-04-12 16:04:00,
2013-04-12 09:09:00,39.2,28.5,29.87,WNW,293,5.6,10.6,65,0.00,,,0.00,WUHU216TE923,2013-04-12 16:09:00,
2013-04-12 09:14:00,39.7,28.6,29.87,South,180,6.0,11.2,64,0.00,,,0.00,WUHU216TE923,2013-04-12 16:14:00,
2013-04-12 09:19:00,39.7,28.6,29.87,South,180,6.0,11.2,64,0.00,,,0.00,WUHU216TE923,2013-04-12 16:19:00,
2013-04-12 09:24:00,40.6,28.7,29.86,South,180,7.1,9.0,62,0.00,,,0.00,WUHU216TE923,2013-04-12 16:24:00,
2013-04-12 09:29:00,40.6,28.7,29.86,South,180,7.1,9.0,62,0.00,,,0.00,WUHU216TE923,2013-04-12 16:29:00,
2013-04-12 09:34:00,41.7,28.5,29.86,SW,225,6.8,12.2,59,0.00,,,0.00,WUHU216TE923,2013-04-12 16:34:00,
2013-04-12 09:39:00,41.7,28.5,29.86,SW,225,6.8,12.2,59,0.00,,,0.00,WUHU216TE923,2013-04-12 16:39:00,
2013-04-12 09:44:00,42.6,29.3,29.86,SSE,158,5.4,5.8,59,0.00,,,0.00,WUHU216TE923,2013-04-12 16:44:00,
2013-04-12 09:49:00,42.6,29.3,29.86,SSE,158,5.4,5.8,59,0.00,,,0.00,WUHU216TE923,2013-04-12 16:49:00,
2013-04-12 09:54:00,43.3,29.6,29.86,South,180,6.1,10.4,58,0.00,,,0.00,WUHU216TE923,2013-04-12 16:54:00,
2013-04-12 09:59:00,43.3,29.6,29.86,South,180,6.1,10.4,58,0.00,,,0.00,WUHU216TE923,2013-04-12 16:59:00,
2013-04-12 10:04:00,44.4,29.7,29.85,NNW,338,5.7,7.4,56,0.00,,,0.00,WUHU216TE923,2013-04-12 17:04:00,
2013-04-12 10:09:00,44.4,29.7,29.85,NNW,338,5.7,7.4,56,0.00,,,0.00,WUHU216TE923,2013-04-12 17:09:00,
2013-04-12 10:14:00,45.1,29.9,29.85,South,180,6.1,13.2,55,0.00,,,0.00,WUHU216TE923,2013-04-12 17:14:00,
2013-04-12 10:19:00,45.1,29.9,29.85,South,180,6.1,13.2,55,0.00,,,0.00,WUHU216TE923,2013-04-12 17:19:00,
2013-04-12 10:24:00,46.0,28.9,29.84,South,180,6.5,13.1,51,0.00,,,0.00,WUHU216TE923,2013-04-12 17:24:00,
2013-04-12 10:29:00,46.0,28.9,29.84,South,180,6.5,13.1,51,0.00,,,0.00,WUHU216TE923,2013-04-12 17:29:00,
2013-04-12 10:34:00,46.8,29.6,29.84,West,270,7.3,14.1,51,0.00,,,0.00,WUHU216TE923,2013-04-12 17:34:00,
2013-04-12 10:39:00,46.8,29.6,29.84,West,270,7.3,14.1,51,0.00,,,0.00,WUHU216TE923,2013-04-12 17:39:00,
2013-04-12 10:44:00,47.8,30.0,29.84,South,180,6.0,8.7,50,0.00,,,0.00,WUHU216TE923,2013-04-12 17:44:00,
2013-04-12 10:49:00,47.8,30.0,29.84,South,180,6.0,8.7,50,0.00,,,0.00,WUHU216TE923,2013-04-12 17:49:00,
2013-04-12 10:54:00,48.6,29.2,29.84,SW,225,6.7,8.5,47,0.00,,,0.00,WUHU216TE923,2013-04-12 17:54:00,
2013-04-12 10:59:00,48.6,29.2,29.84,SW,225,6.7,8.5,47,0.00,,,0.00,WUHU216TE923,2013-04-12 17:59:00,
2013-04-12 11:04:00,49.6,29.0,29.82,SSE,158,6.0,7.9,45,0.00,,,0.00,WUHU216TE923,2013-04-12 18:04:00,
2013-04-12 11:10:00,49.6,29.0,29.82,SSE,158,6.0,7.9,45,0.00,,,0.00,WUHU216TE923,2013-04-12 18:10:00,
2013-04-12 11:15:00,50.7,28.3,29.82,SSW,203,6.1,6.5,42,0.00,,,0.00,WUHU216TE923,2013-04-12 18:15:00,
2013-04-12 11:20:00,50.7,28.3,29.82,SSW,203,6.1,6.5,42,0.00,,,0.00,WUHU216TE923,2013-04-12 18:20:00,
2013-04-12 11:25:00,51.8,28.1,29.81,SSW,203,4.8,12.1,40,0.00,,,0.00,WUHU216TE923,2013-04-12 18:25:00,
2013-04-12 11:30:00,51.8,28.1,29.81,SSW,203,4.8,12.1,40,0.00,,,0.00,WUHU216TE923,2013-04-12 18:30:00,
2013-04-12 11:34:00,52.3,27.2,29.81,SW,225,5.2,7.2,38,0.00,,,0.00,WUHU216TE923,2013-04-12 18:34:00,
2013-04-12 11:40:00,52.7,26.9,29.80,WSW,248,5.2,8.8,37,0.00,,,0.00,WUHU216TE923,2013-04-12 18:40:00,
2013-04-12 11:44:00,53.4,27.6,29.80,SW,225,5.1,8.8,37,0.00,,,0.00,WUHU216TE923,2013-04-12 18:44:00,
2013-04-12 11:54:00,54.5,27.9,29.80,South,180,4.3,7.9,36,0.00,,,0.00,WUHU216TE923,2013-04-12 18:54:00,
2013-04-12 12:00:00,54.5,27.2,29.80,SSE,158,5.2,7.9,35,0.00,,,0.00,WUHU216TE923,2013-04-12 19:00:00,
2013-04-12 12:04:00,55.0,27.6,29.80,South,180,5.3,12.4,35,0.00,,,0.00,WUHU216TE923,2013-04-12 19:04:00,
2013-04-12 12:10:00,55.0,27.6,29.80,South,180,5.3,12.4,35,0.00,,,0.00,WUHU216TE923,2013-04-12 19:10:00,
2013-04-12 12:26:00,55.4,26.5,29.78,SSW,203,2.9,12.4,33,0.00,,,0.00,WUHU216TE923,2013-04-12 19:26:00,
2013-04-12 12:31:00,55.4,26.5,29.78,WSW,248,3.9,8.2,33,0.00,,,0.00,WUHU216TE923,2013-04-12 19:31:00,
2013-04-12 12:36:00,55.4,25.0,29.78,NNW,338,4.9,5.6,31,0.00,,,0.00,WUHU216TE923,2013-04-12 19:36:00,
2013-04-12 12:41:00,55.4,25.8,29.77,South,180,4.3,5.6,32,0.00,,,0.00,WUHU216TE923,2013-04-12 19:41:00,
2013-04-12 12:46:00,55.4,25.8,29.77,West,270,2.9,6.2,32,0.00,,,0.00,WUHU216TE923,2013-04-12 19:46:00,
2013-04-12 12:51:00,55.4,25.8,29.77,SSW,203,3.0,6.2,32,0.00,,,0.00,WUHU216TE923,2013-04-12 19:51:00,
2013-04-12 12:56:00,55.9,25.5,29.77,NW,315,3.3,7.0,31,0.00,,,0.00,WUHU216TE923,2013-04-12 19:56:00,
2013-04-12 13:01:00,55.9,25.5,29.77,NW,315,3.3,7.0,31,0.00,,,0.00,WUHU216TE923,2013-04-12 20:01:00,
2013-04-12 13:06:00,56.5,26.8,29.76,NW,315,2.5,2.5,32,0.00,,,0.00,WUHU216TE923,2013-04-12 20:06:00,
2013-04-12 13:11:00,56.7,26.9,29.76,SW,225,2.3,7.6,32,0.00,,,0.00,WUHU216TE923,2013-04-12 20:11:00,
2013-04-12 13:16:00,56.7,26.2,29.76,SW,225,2.3,7.6,31,0.00,,,0.00,WUHU216TE923,2013-04-12 20:16:00,
2013-04-12 13:22:00,56.8,26.3,29.76,WSW,248,2.2,3.3,31,0.00,,,0.00,WUHU216TE923,2013-04-12 20:22:00,
2013-04-12 13:27:00,56.8,25.5,29.76,WNW,293,1.5,2.4,30,0.00,,,0.00,WUHU216TE923,2013-04-12 20:27:00,
2013-04-12 13:32:00,56.8,26.3,29.76,WSW,248,1.5,2.6,31,0.00,,,0.00,WUHU216TE923,2013-04-12 20:32:00,
2013-04-12 13:37:00,57.0,25.6,29.76,South,180,1.9,4.7,30,0.00,,,0.00,WUHU216TE923,2013-04-12 20:37:00,
2013-04-12 13:42:00,57.2,25.8,29.75,NNW,338,2.3,4.7,30,0.00,,,0.00,WUHU216TE923,2013-04-12 20:42:00,
2013-04-12 13:47:00,57.2,25.8,29.75,NNE,23,2.9,3.8,30,0.00,,,0.00,WUHU216TE923,2013-04-12 20:47:00,
2013-04-12 13:52:00,57.2,25.8,29.75,NW,315,3.1,5.6,30,0.00,,,0.00,WUHU216TE923,2013-04-12 20:52:00,
2013-04-12 13:57:00,57.4,26.0,29.75,NNE,23,3.1,5.6,30,0.00,,,0.00,WUHU216TE923,2013-04-12 20:57:00,
2013-04-12 14:02:00,57.2,25.8,29.75,NNE,23,2.9,3.5,30,0.00,,,0.00,WUHU216TE923,2013-04-12 21:02:00,
2013-04-12 14:07:00,57.2,25.8,29.75,North,0,2.5,3.5,30,0.00,,,0.00,WUHU216TE923,2013-04-12 21:07:00,
2013-04-12 14:12:00,57.0,26.4,29.75,NW,315,2.4,3.4,31,0.00,,,0.00,WUHU216TE923,2013-04-12 21:12:00,
2013-04-12 14:17:00,57.0,26.4,29.75,NNW,338,2.1,3.4,31,0.00,,,0.00,WUHU216TE923,2013-04-12 21:17:00,
2013-04-12 14:22:00,56.8,25.5,29.76,SSE,158,2.0,3.3,30,0.00,,,0.00,WUHU216TE923,2013-04-12 21:22:00,
2013-04-12 14:27:00,56.7,25.4,29.76,NNE,23,2.3,4.1,30,0.00,,,0.00,WUHU216TE923,2013-04-12 21:27:00,
2013-04-12 14:32:00,56.7,25.4,29.76,NNE,23,3.2,4.5,30,0.00,,,0.00,WUHU216TE923,2013-04-12 21:32:00,
2013-04-12 14:37:00,56.5,24.4,29.76,WSW,248,3.4,6.1,29,0.00,,,0.00,WUHU216TE923,2013-04-12 21:37:00,
2013-04-12 14:42:00,56.3,22.5,29.76,NW,315,2.9,6.1,27,0.00,,,0.00,WUHU216TE923,2013-04-12 21:42:00,
2013-04-12 14:47:00,56.1,24.1,29.76,NW,315,1.9,5.2,29,0.00,,,0.00,WUHU216TE923,2013-04-12 21:47:00,
2013-04-12 14:52:00,55.9,22.2,29.76,SW,225,1.9,6.3,27,0.00,,,0.00,WUHU216TE923,2013-04-12 21:52:00,
2013-04-12 14:57:00,55.8,21.2,29.76,SW,225,2.3,6.3,26,0.00,,,0.00,WUHU216TE923,2013-04-12 21:57:00,
2013-04-12 15:02:00,55.6,21.1,29.76,NW,315,2.1,2.4,26,0.00,,,0.00,WUHU216TE923,2013-04-12 22:02:00,
2013-04-12 15:07:00,55.2,20.7,29.76,SW,225,2.2,3.3,26,0.00,,,0.00,WUHU216TE923,2013-04-12 22:07:00,
2013-04-12 15:12:00,55.0,20.6,29.76,WSW,248,2.2,3.3,26,0.00,,,0.00,WUHU216TE923,2013-04-12 22:12:00,
2013-04-12 15:17:00,54.9,20.5,29.76,WSW,248,1.9,5.8,26,0.00,,,0.00,WUHU216TE923,2013-04-12 22:17:00,
2013-04-12 15:22:00,54.7,20.3,29.74,West,270,2.1,5.8,26,0.00,,,0.00,WUHU216TE923,2013-04-12 22:22:00,
2013-04-12 15:27:00,54.9,19.6,29.74,WNW,293,2.7,3.1,25,0.00,,,0.00,WUHU216TE923,2013-04-12 22:27:00,
2013-04-12 15:32:00,54.9,19.6,29.74,NW,315,3.1,6.0,25,0.00,,,0.00,WUHU216TE923,2013-04-12 22:32:00,
2013-04-12 15:37:00,54.7,19.4,29.74,NNW,338,3.7,6.8,25,0.00,,,0.00,WUHU216TE923,2013-04-12 22:37:00,
2013-04-12 15:42:00,54.7,19.4,29.74,WSW,248,3.6,6.8,25,0.00,,,0.00,WUHU216TE923,2013-04-12 22:42:00,
2013-04-12 15:47:00,54.9,19.6,29.74,WNW,293,4.1,4.5,25,0.00,,,0.00,WUHU216TE923,2013-04-12 22:47:00,
2013-04-12 15:52:00,55.0,19.6,29.74,ESE,113,4.2,7.1,25,0.00,,,0.00,WUHU216TE923,2013-04-12 22:52:00,
2013-04-12 15:57:00,55.0,20.6,29.74,WNW,293,4.6,7.1,26,0.00,,,0.00,WUHU216TE923,2013-04-12 22:57:00,
2013-04-12 16:02:00,55.0,20.6,29.73,SE,135,4.6,6.0,26,0.00,,,0.00,WUHU216TE923,2013-04-12 23:02:00,
2013-04-12 16:07:00,55.0,23.1,29.73,WNW,293,4.7,8.8,29,0.00,,,0.00,WUHU216TE923,2013-04-12 23:07:00,
2013-04-12 16:12:00,55.0,23.1,29.73,WNW,293,4.4,8.8,29,0.00,,,0.00,WUHU216TE923,2013-04-12 23:12:00,
2013-04-12 16:17:00,55.0,23.9,29.73,NW,315,4.7,9.0,30,0.00,,,0.00,WUHU216TE923,2013-04-12 23:17:00,
2013-04-12 16:22:00,55.0,23.9,29.72,NNE,23,4.7,9.0,30,0.00,,,0.00,WUHU216TE923,2013-04-12 23:22:00,
2013-04-12 16:27:00,55.0,24.7,29.72,ESE,113,4.3,4.7,31,0.00,,,0.00,WUHU216TE923,2013-04-12 23:27:00,
2013-04-12 16:32:00,55.0,24.7,29.72,WSW,248,3.9,4.3,31,0.00,,,0.00,WUHU216TE923,2013-04-12 23:32:00,
2013-04-12 16:37:00,55.0,25.4,29.72,West,270,3.5,3.9,32,0.00,,,0.00,WUHU216TE923,2013-04-12 23:37:00,
2013-04-12 16:42:00,55.0,25.4,29.71,West,270,3.6,7.6,32,0.00,,,0.00,WUHU216TE923,2013-04-12 23:42:00,
2013-04-12 16:47:00,54.7,25.2,29.71,SW,225,3.9,7.6,32,0.00,,,0.00,WUHU216TE923,2013-04-12 23:47:00,
2013-04-12 16:52:00,54.7,25.2,29.71,West,270,4.1,7.4,32,0.00,,,0.00,WUHU216TE923,2013-04-12 23:52:00,
2013-04-12 16:57:00,54.5,25.7,29.71,WNW,293,3.9,6.3,33,0.00,,,0.00,WUHU216TE923,2013-04-12 23:57:00,
2013-04-12 17:02:00,54.5,25.7,29.72,SW,225,3.6,6.3,33,0.00,,,0.00,WUHU216TE923,2013-04-13 00:02:00,
2013-04-12 17:07:00,54.3,25.6,29.72,West,270,3.6,6.4,33,0.00,,,0.00,WUHU216TE923,2013-04-13 00:07:00,
2013-04-12 17:12:00,54.1,25.4,29.72,SSW,203,3.6,6.4,33,0.00,,,0.00,WUHU216TE923,2013-04-13 00:12:00,
2013-04-12 17:17:00,54.0,26.0,29.72,WNW,293,4.0,5.7,34,0.00,,,0.00,WUHU216TE923,2013-04-13 00:17:00,
2013-04-12 17:22:00,54.1,26.1,29.72,SW,225,4.5,5.7,34,0.00,,,0.00,WUHU216TE923,2013-04-13 00:22:00,
2013-04-12 17:27:00,54.7,27.3,29.72,NNE,23,4.1,5.7,35,0.00,,,0.00,WUHU216TE923,2013-04-13 00:27:00,
2013-04-12 17:32:00,54.9,27.5,29.72,SSW,203,3.5,4.1,35,0.00,,,0.00,WUHU216TE923,2013-04-13 00:32:00,
2013-04-12 17:37:00,55.2,27.8,29.72,West,270,3.6,7.3,35,0.00,,,0.00,WUHU216TE923,2013-04-13 00:37:00,
2013-04-12 17:42:00,55.0,27.6,29.72,WNW,293,3.8,7.3,35,0.00,,,0.00,WUHU216TE923,2013-04-13 00:42:00,
2013-04-12 17:47:00,54.9,27.5,29.72,SSW,203,4.3,4.3,35,0.00,,,0.00,WUHU216TE923,2013-04-13 00:47:00,
2013-04-12 17:52:00,54.7,27.3,29.72,South,180,3.8,4.3,35,0.00,,,0.00,WUHU216TE923,2013-04-13 00:52:00,
2013-04-12 17:57:00,54.1,26.8,29.72,WSW,248,3.1,5.0,35,0.00,,,0.00,WUHU216TE923,2013-04-13 00:57:00,
2013-04-12 18:02:00,53.8,26.5,29.71,SW,225,3.5,5.0,35,0.00,,,0.00,WUHU216TE923,2013-04-13 01:02:00,
2013-04-12 18:07:00,53.6,26.4,29.71,South,180,4.8,4.8,35,0.00,,,0.00,WUHU216TE923,2013-04-13 01:07:00,
2013-04-12 18:12:00,53.2,26.0,29.71,South,180,5.0,8.9,35,0.00,,,0.00,WUHU216TE923,2013-04-13 01:12:00,
2013-04-12 18:17:00,52.9,25.8,29.71,West,270,4.8,8.9,35,0.00,,,0.00,WUHU216TE923,2013-04-13 01:17:00,
2013-04-12 18:22:00,52.7,25.6,29.69,WSW,248,4.7,7.0,35,0.00,,,0.00,WUHU216TE923,2013-04-13 01:22:00,
2013-04-12 18:27:00,52.3,25.2,29.69,South,180,3.7,6.5,35,0.00,,,0.00,WUHU216TE923,2013-04-13 01:27:00,
2013-04-12 18:32:00,52.2,25.8,29.69,WSW,248,3.6,7.7,36,0.00,,,0.00,WUHU216TE923,2013-04-13 01:32:00,
2013-04-12 18:37:00,51.8,25.5,29.69,South,180,4.2,7.7,36,0.00,,,0.00,WUHU216TE923,2013-04-13 01:37:00,
2013-04-12 18:42:00,51.6,25.9,29.69,West,270,4.0,4.2,37,0.00,,,0.00,WUHU216TE923,2013-04-13 01:42:00,
2013-04-12 18:47:00,51.6,25.9,29.69,South,180,3.2,7.6,37,0.00,,,0.00,WUHU216TE923,2013-04-13 01:47:00,
2013-04-12 18:52:00,51.4,25.8,29.69,SSW,203,3.2,7.6,37,0.00,,,0.00,WUHU216TE923,2013-04-13 01:52:00,
2013-04-12 18:57:00,51.3,26.3,29.69,SW,225,3.3,7.5,38,0.00,,,0.00,WUHU216TE923,2013-04-13 01:57:00,
2013-04-12 19:02:00,51.1,26.2,29.67,South,180,3.2,8.1,38,0.00,,,0.00,WUHU216TE923,2013-04-13 02:02:00,
2013-04-12 19:08:00,50.7,26.4,29.67,SW,225,3.9,8.1,39,0.00,,,0.00,WUHU216TE923,2013-04-13 02:08:00,
2013-04-12 19:13:00,50.5,26.9,29.67,South,180,4.3,7.0,40,0.00,,,0.00,WUHU216TE923,2013-04-13 02:13:00,
2013-04-12 19:18:00,50.4,27.4,29.67,SSW,203,3.5,7.0,41,0.00,,,0.00,WUHU216TE923,2013-04-13 02:18:00,
2013-04-12 19:23:00,50.2,27.8,29.68,SW,225,3.5,3.5,42,0.00,,,0.00,WUHU216TE923,2013-04-13 02:23:00,
2013-04-12 19:28:00,49.8,28.6,29.68,West,270,4.1,5.5,44,0.00,,,0.00,WUHU216TE923,2013-04-13 02:28:00,
2013-04-12 19:33:00,49.6,29.0,29.68,SW,225,4.5,5.5,45,0.00,,,0.00,WUHU216TE923,2013-04-13 02:33:00,
2013-04-12 19:38:00,49.3,29.3,29.68,West,270,4.4,6.3,46,0.00,,,0.00,WUHU216TE923,2013-04-13 02:38:00,
2013-04-12 19:43:00,49.1,30.2,29.67,South,180,4.9,12.7,48,0.00,,,0.00,WUHU216TE923,2013-04-13 02:43:00,
2013-04-12 19:48:00,48.7,30.3,29.67,South,180,5.3,12.7,49,0.00,,,0.00,WUHU216TE923,2013-04-13 02:48:00,
2013-04-12 19:53:00,48.6,30.2,29.67,NW,315,5.2,8.8,49,0.00,,,0.00,WUHU216TE923,2013-04-13 02:53:00,
2013-04-12 19:58:00,48.4,30.6,29.67,SW,225,4.6,8.6,50,0.00,,,0.00,WUHU216TE923,2013-04-13 02:58:00,
2013-04-12 20:03:00,48.2,30.4,29.65,SSW,203,3.3,8.6,50,0.00,,,0.00,WUHU216TE923,2013-04-13 03:03:00,
2013-04-12 20:08:00,48.0,31.2,29.65,SSE,158,3.5,7.6,52,0.00,,,0.00,WUHU216TE923,2013-04-13 03:08:00,
2013-04-12 20:13:00,47.8,30.5,29.65,South,180,3.7,7.6,51,0.00,,,0.00,WUHU216TE923,2013-04-13 03:13:00,
2013-04-12 20:18:00,47.8,31.0,29.65,SW,225,3.5,4.7,52,0.00,,,0.00,WUHU216TE923,2013-04-13 03:18:00,
2013-04-12 20:23:00,47.7,30.9,29.66,SSE,158,3.8,7.9,52,0.00,,,0.00,WUHU216TE923,2013-04-13 03:23:00,
2013-04-12 20:28:00,47.5,31.2,29.66,South,180,4.1,7.9,53,0.00,,,0.00,WUHU216TE923,2013-04-13 03:28:00,
2013-04-12 20:33:00,47.5,31.2,29.66,NW,315,4.7,5.0,53,0.00,,,0.00,WUHU216TE923,2013-04-13 03:33:00,
2013-04-12 20:38:00,47.5,31.2,29.66,South,180,4.0,4.7,53,0.00,,,0.00,WUHU216TE923,2013-04-13 03:38:00,
2013-04-12 20:43:00,47.3,31.5,29.67,ENE,68,3.7,4.0,54,0.00,,,0.00,WUHU216TE923,2013-04-13 03:43:00,
2013-04-12 20:48:00,47.3,32.0,29.67,South,180,3.8,3.9,55,0.00,,,0.00,WUHU216TE923,2013-04-13 03:48:00,
2013-04-12 20:53:00,47.3,32.0,29.67,SE,135,3.6,3.9,55,0.00,,,0.00,WUHU216TE923,2013-04-13 03:53:00,
2013-04-12 20:58:00,47.3,32.0,29.67,SW,225,4.1,7.1,55,0.00,,,0.00,WUHU216TE923,2013-04-13 03:58:00,
2013-04-12 21:03:00,47.3,32.0,29.67,SW,225,4.1,7.1,55,0.00,,,0.00,WUHU216TE923,2013-04-13 04:03:00,
2013-04-12 22:09:00,45.1,32.1,29.65,NW,315,4.7,4.7,60,0.00,,,0.00,WUHU216TE923,2013-04-13 05:09:00,
2013-04-12 22:14:00,45.1,32.1,29.65,SSW,203,3.8,4.2,60,0.00,,,0.00,WUHU216TE923,2013-04-13 05:14:00,
2013-04-12 22:19:00,45.1,32.1,29.65,SSW,203,3.8,4.2,60,0.00,,,0.00,WUHU216TE923,2013-04-13 05:19:00,
2013-04-12 22:59:00,45.1,31.7,29.65,WSW,248,3.6,7.1,59,0.00,,,0.00,WUHU216TE923,2013-04-13 05:59:00,
2013-04-12 23:04:00,45.1,31.7,29.64,South,180,4.3,5.6,59,0.00,,,0.00,WUHU216TE923,2013-04-13 06:04:00,
2013-04-12 23:09:00,45.1,31.7,29.64,South,180,4.3,5.6,59,0.00,,,0.00,WUHU216TE923,2013-04-13 06:09:00,
2013-04-12 23:14:00,45.1,31.7,29.64,SW,225,4.4,5.4,59,0.00,,,0.00,WUHU216TE923,2013-04-13 06:14:00,
2013-04-12 23:19:00,45.1,31.7,29.64,SW,225,4.4,5.4,59,0.00,,,0.00,WUHU216TE923,2013-04-13 06:19:00,